sensor_id;sensor_type;location;lat;lon;timestamp;pressure;altitude;pressure_sealevel;temperature;humidity
48790;BME280;41718;51.980;5.734;2023-01-15T00:03:17;99627.00;;;6.17;100.00
48790;BME280;41718;51.980;5.734;2023-01-15T00:08:19;99631.25;;;6.13;100.00
48790;BME280;41718;51.980;5.734;2023-01-15T00:13:21;99625.28;;;6.17;100.00
48790;BME280;41718;51.980;5.734;2023-01-15T00:18:22;99639.84;;;6.17;100.00
48790;BME280;41718;51.980;5.734;2023-01-15T00:23:24;99635.53;;;6.14;100.00
48790;BME280;41718;51.980;5.734;2023-01-15T00:28:47;99638.88;;;6.07;100.00
48790;BME280;41718;51.980;5.734;2023-01-15T00:33:49;99638.06;;;6.11;100.00
48790;BME280;41718;51.980;5.734;2023-01-15T00:38:51;99631.25;;;6.15;100.00
48790;BME280;41718;51.980;5.734;2023-01-15T00:43:53;99621.84;;;6.15;100.00
48790;BME280;41718;51.980;5.734;2023-01-15T00:48:54;99640.69;;;6.14;100.00
48790;BME280;41718;51.980;5.734;2023-01-15T00:53:56;99635.47;;;6.08;100.00
48790;BME280;41718;51.980;5.734;2023-01-15T00:59:00;99642.34;;;6.12;100.00
48790;BME280;41718;51.980;5.734;2023-01-15T01:04:02;99638.91;;;6.11;100.00
48790;BME280;41718;51.980;5.734;2023-01-15T01:09:04;99649.94;;;6.04;100.00
48790;BME280;41718;51.980;5.734;2023-01-15T01:14:05;99639.69;;;6.06;100.00
48790;BME280;41718;51.980;5.734;2023-01-15T01:19:10;99654.25;;;6.05;100.00
48790;BME280;41718;51.980;5.734;2023-01-15T01:24:15;99643.97;;;6.05;100.00
48790;BME280;41718;51.980;5.734;2023-01-15T01:29:19;99649.09;;;6.05;100.00
48790;BME280;41718;51.980;5.734;2023-01-15T01:34:20;99635.31;;;5.97;100.00
48790;BME280;41718;51.980;5.734;2023-01-15T01:39:22;99643.88;;;5.96;100.00
48790;BME280;41718;51.980;5.734;2023-01-15T01:49:36;99632.69;;;5.93;100.00
48790;BME280;41718;51.980;5.734;2023-01-15T01:54:40;99656.44;;;5.81;100.00
48790;BME280;41718;51.980;5.734;2023-01-15T01:59:42;99641.97;;;5.84;100.00
48790;BME280;41718;51.980;5.734;2023-01-15T02:04:44;99644.59;;;5.91;100.00
48790;BME280;41718;51.980;5.734;2023-01-15T02:09:45;99640.25;;;5.87;100.00
48790;BME280;41718;51.980;5.734;2023-01-15T02:20:23;99636.78;;;5.83;100.00
48790;BME280;41718;51.980;5.734;2023-01-15T02:30:58;99653.72;;;5.70;100.00
48790;BME280;41718;51.980;5.734;2023-01-15T02:36:04;99639.00;;;5.58;100.00
48790;BME280;41718;51.980;5.734;2023-01-15T02:41:09;99649.19;;;5.55;100.00
48790;BME280;41718;51.980;5.734;2023-01-15T02:46:20;99632.06;;;5.53;100.00
48790;BME280;41718;51.980;5.734;2023-01-15T02:51:25;99639.69;;;5.48;100.00
48790;BME280;41718;51.980;5.734;2023-01-15T02:56:30;99637.13;;;5.50;100.00
48790;BME280;41718;51.980;5.734;2023-01-15T03:01:40;99641.50;;;5.55;100.00
48790;BME280;41718;51.980;5.734;2023-01-15T03:11:53;99620.94;;;5.52;100.00
48790;BME280;41718;51.980;5.734;2023-01-15T03:17:02;99627.78;;;5.50;100.00
48790;BME280;41718;51.980;5.734;2023-01-15T03:22:12;99617.28;;;5.37;100.00
48790;BME280;41718;51.980;5.734;2023-01-15T03:27:17;99626.75;;;5.41;100.00
48790;BME280;41718;51.980;5.734;2023-01-15T03:32:20;99621.66;;;5.42;100.00
48790;BME280;41718;51.980;5.734;2023-01-15T03:37:24;99625.94;;;5.43;100.00
48790;BME280;41718;51.980;5.734;2023-01-15T03:43:06;99620.59;;;5.28;100.00
48790;BME280;41718;51.980;5.734;2023-01-15T03:48:27;99612.13;;;5.34;100.00
48790;BME280;41718;51.980;5.734;2023-01-15T03:53:44;99619.88;;;5.38;100.00
48790;BME280;41718;51.980;5.734;2023-01-15T04:04:07;99617.31;;;5.38;100.00
48790;BME280;41718;51.980;5.734;2023-01-15T04:09:12;99602.81;;;5.40;100.00
48790;BME280;41718;51.980;5.734;2023-01-15T04:14:14;99615.47;;;5.29;100.00
48790;BME280;41718;51.980;5.734;2023-01-15T04:19:15;99610.16;;;5.19;100.00
48790;BME280;41718;51.980;5.734;2023-01-15T04:24:17;99610.09;;;5.16;100.00
48790;BME280;41718;51.980;5.734;2023-01-15T04:29:19;99612.63;;;5.13;100.00
48790;BME280;41718;51.980;5.734;2023-01-15T04:34:20;99623.72;;;5.12;100.00
48790;BME280;41718;51.980;5.734;2023-01-15T04:39:21;99617.69;;;5.10;100.00
48790;BME280;41718;51.980;5.734;2023-01-15T04:44:23;99610.00;;;5.08;100.00
48790;BME280;41718;51.980;5.734;2023-01-15T04:49:28;99622.78;;;5.07;100.00
48790;BME280;41718;51.980;5.734;2023-01-15T04:54:30;99614.25;;;5.08;100.00
48790;BME280;41718;51.980;5.734;2023-01-15T04:59:32;99628.56;;;4.96;100.00
48790;BME280;41718;51.980;5.734;2023-01-15T05:04:34;99622.78;;;5.07;100.00
48790;BME280;41718;51.980;5.734;2023-01-15T05:09:35;99625.28;;;5.03;100.00
48790;BME280;41718;51.980;5.734;2023-01-15T05:14:37;99618.41;;;5.01;100.00
48790;BME280;41718;51.980;5.734;2023-01-15T05:19:38;99616.97;;;5.17;100.00
48790;BME280;41718;51.980;5.734;2023-01-15T05:24:40;99606.66;;;5.12;100.00
48790;BME280;41718;51.980;5.734;2023-01-15T05:29:41;99606.47;;;5.01;100.00
48790;BME280;41718;51.980;5.734;2023-01-15T05:34:43;99605.63;;;5.02;100.00
48790;BME280;41718;51.980;5.734;2023-01-15T05:39:45;99598.69;;;4.97;100.00
48790;BME280;41718;51.980;5.734;2023-01-15T05:44:46;99592.78;;;4.99;100.00
48790;BME280;41718;51.980;5.734;2023-01-15T05:49:47;99585.97;;;5.03;100.00
48790;BME280;41718;51.980;5.734;2023-01-15T05:54:50;99593.66;;;5.01;100.00
48790;BME280;41718;51.980;5.734;2023-01-15T05:59:51;99596.03;;;4.91;100.00
48790;BME280;41718;51.980;5.734;2023-01-15T06:04:54;99602.97;;;4.96;100.00
48790;BME280;41718;51.980;5.734;2023-01-15T06:09:56;99605.41;;;4.90;100.00
48790;BME280;41718;51.980;5.734;2023-01-15T06:14:57;99604.41;;;4.82;100.00
48790;BME280;41718;51.980;5.734;2023-01-15T06:19:58;99617.09;;;4.74;100.00
48790;BME280;41718;51.980;5.734;2023-01-15T06:25:00;99612.72;;;4.70;100.00
48790;BME280;41718;51.980;5.734;2023-01-15T06:30:02;99625.38;;;4.60;100.00
48790;BME280;41718;51.980;5.734;2023-01-15T06:35:03;99626.47;;;4.74;100.00
48790;BME280;41718;51.980;5.734;2023-01-15T06:40:05;99631.69;;;4.80;100.00
48790;BME280;41718;51.980;5.734;2023-01-15T06:45:09;99629.13;;;4.80;100.00
48790;BME280;41718;51.980;5.734;2023-01-15T06:50:37;99630.66;;;4.70;100.00
48790;BME280;41718;51.980;5.734;2023-01-15T06:55:38;99632.88;;;4.50;100.00
48790;BME280;41718;51.980;5.734;2023-01-15T07:00:40;99641.22;;;4.42;100.00
48790;BME280;41718;51.980;5.734;2023-01-15T07:05:45;99644.34;;;4.27;100.00
48790;BME280;41718;51.980;5.734;2023-01-15T07:10:46;99648.50;;;4.22;100.00
48790;BME280;41718;51.980;5.734;2023-01-15T07:15:48;99650.94;;;4.16;100.00
48790;BME280;41718;51.980;5.734;2023-01-15T07:20:53;99644.97;;;4.15;100.00
48790;BME280;41718;51.980;5.734;2023-01-15T07:25:54;99638.03;;;4.11;100.00
48790;BME280;41718;51.980;5.734;2023-01-15T07:30:57;99644.16;;;4.18;100.00
48790;BME280;41718;51.980;5.734;2023-01-15T07:36:03;99641.75;;;4.25;100.00
48790;BME280;41718;51.980;5.734;2023-01-15T07:41:05;99638.16;;;4.17;100.00
48790;BME280;41718;51.980;5.734;2023-01-15T07:46:26;99634.84;;;4.21;100.00
48790;BME280;41718;51.980;5.734;2023-01-15T07:51:46;99635.75;;;4.25;100.00
48790;BME280;41718;51.980;5.734;2023-01-15T07:56:48;99632.44;;;4.31;100.00
48790;BME280;41718;51.980;5.734;2023-01-15T08:01:50;99651.91;;;4.21;100.00
48790;BME280;41718;51.980;5.734;2023-01-15T08:06:51;99647.66;;;4.23;100.00
48790;BME280;41718;51.980;5.734;2023-01-15T08:11:53;99646.56;;;4.10;100.00
48790;BME280;41718;51.980;5.734;2023-01-15T08:17:13;99658.59;;;4.14;100.00
48790;BME280;41718;51.980;5.734;2023-01-15T08:22:14;99635.50;;;4.13;100.00
48790;BME280;41718;51.980;5.734;2023-01-15T08:27:16;99643.31;;;4.19;100.00
48790;BME280;41718;51.980;5.734;2023-01-15T08:32:17;99645.22;;;4.28;100.00
48790;BME280;41718;51.980;5.734;2023-01-15T08:37:19;99654.47;;;4.22;100.00
48790;BME280;41718;51.980;5.734;2023-01-15T08:42:21;99650.22;;;4.21;100.00
48790;BME280;41718;51.980;5.734;2023-01-15T08:47:22;99649.63;;;4.35;100.00
48790;BME280;41718;51.980;5.734;2023-01-15T08:52:24;99642.00;;;4.38;100.00
48790;BME280;41718;51.980;5.734;2023-01-15T08:57:25;99653.16;;;4.41;100.00
48790;BME280;41718;51.980;5.734;2023-01-15T09:02:26;99666.16;;;4.50;100.00
48790;BME280;41718;51.980;5.734;2023-01-15T09:07:30;99650.16;;;4.62;100.00
48790;BME280;41718;51.980;5.734;2023-01-15T09:12:31;99638.22;;;4.63;100.00
48790;BME280;41718;51.980;5.734;2023-01-15T09:17:33;99637.34;;;4.61;100.00
48790;BME280;41718;51.980;5.734;2023-01-15T09:22:35;99637.28;;;4.59;100.00
48790;BME280;41718;51.980;5.734;2023-01-15T09:27:37;99646.84;;;4.68;100.00
48790;BME280;41718;51.980;5.734;2023-01-15T09:32:38;99637.66;;;4.77;100.00
48790;BME280;41718;51.980;5.734;2023-01-15T09:37:40;99637.66;;;4.79;100.00
48790;BME280;41718;51.980;5.734;2023-01-15T09:42:54;99639.50;;;4.88;100.00
48790;BME280;41718;51.980;5.734;2023-01-15T09:53:51;99648.22;;;4.96;100.00
48790;BME280;41718;51.980;5.734;2023-01-15T09:58:58;99637.44;;;5.15;100.00
48790;BME280;41718;51.980;5.734;2023-01-15T10:04:12;99646.13;;;5.22;100.00
48790;BME280;41718;51.980;5.734;2023-01-15T10:09:19;99656.31;;;5.20;100.00
48790;BME280;41718;51.980;5.734;2023-01-15T10:14:31;99665.81;;;5.26;100.00
48790;BME280;41718;51.980;5.734;2023-01-15T10:19:39;99660.78;;;5.30;100.00
48790;BME280;41718;51.980;5.734;2023-01-15T10:24:53;99649.66;;;5.28;100.00
48790;BME280;41718;51.980;5.734;2023-01-15T10:30:15;99643.97;;;5.49;100.00
48790;BME280;41718;51.980;5.734;2023-01-15T10:35:35;99642.34;;;5.53;100.00
48790;BME280;41718;51.980;5.734;2023-01-15T10:46:21;99659.03;;;5.82;100.00
48790;BME280;41718;51.980;5.734;2023-01-15T10:51:51;99668.72;;;6.00;100.00
48790;BME280;41718;51.980;5.734;2023-01-15T11:02:23;99668.00;;;6.10;100.00
48790;BME280;41718;51.980;5.734;2023-01-15T11:07:36;99664.78;;;6.25;100.00
48790;BME280;41718;51.980;5.734;2023-01-15T11:12:50;99659.66;;;6.25;100.00
48790;BME280;41718;51.980;5.734;2023-01-15T11:18:14;99662.22;;;6.25;100.00
48790;BME280;41718;51.980;5.734;2023-01-15T11:23:38;99662.44;;;6.45;100.00
48790;BME280;41718;51.980;5.734;2023-01-15T11:28:40;99666.25;;;6.78;100.00
48790;BME280;41718;51.980;5.734;2023-01-15T11:33:54;99670.19;;;6.47;100.00
48790;BME280;41718;51.980;5.734;2023-01-15T11:38:58;99665.75;;;6.35;100.00
48790;BME280;41718;51.980;5.734;2023-01-15T11:43:59;99671.47;;;6.14;100.00
48790;BME280;41718;51.980;5.734;2023-01-15T11:49:20;99667.97;;;6.07;100.00
48790;BME280;41718;51.980;5.734;2023-01-15T11:54:42;99682.34;;;5.42;100.00
48790;BME280;41718;51.980;5.734;2023-01-15T11:59:47;99686.09;;;5.12;100.00
48790;BME280;41718;51.980;5.734;2023-01-15T12:04:54;99695.84;;;5.31;100.00
48790;BME280;41718;51.980;5.734;2023-01-15T12:10:21;99691.06;;;5.51;100.00
48790;BME280;41718;51.980;5.734;2023-01-15T12:32:08;99665.06;;;5.86;100.00
48790;BME280;41718;51.980;5.734;2023-01-15T12:37:18;99678.19;;;5.50;100.00
48790;BME280;41718;51.980;5.734;2023-01-15T12:42:24;99677.28;;;5.45;100.00
48790;BME280;41718;51.980;5.734;2023-01-15T12:48:25;99663.63;;;5.49;100.00
48790;BME280;41718;51.980;5.734;2023-01-15T12:53:31;99670.94;;;5.26;100.00
48790;BME280;41718;51.980;5.734;2023-01-15T12:58:59;99667.53;;;5.27;100.00
48790;BME280;41718;51.980;5.734;2023-01-15T13:04:19;99655.75;;;5.38;100.00
48790;BME280;41718;51.980;5.734;2023-01-15T13:09:35;99670.44;;;5.45;100.00
48790;BME280;41718;51.980;5.734;2023-01-15T13:14:38;99672.25;;;5.54;100.00
48790;BME280;41718;51.980;5.734;2023-01-15T13:20:04;99661.25;;;5.59;100.00
48790;BME280;41718;51.980;5.734;2023-01-15T13:25:27;99675.88;;;5.67;100.00
48790;BME280;41718;51.980;5.734;2023-01-15T13:30:47;99679.03;;;5.49;100.00
48790;BME280;41718;51.980;5.734;2023-01-15T13:36:03;99678.34;;;5.59;100.00
48790;BME280;41718;51.980;5.734;2023-01-15T13:41:07;99690.56;;;5.74;100.00
48790;BME280;41718;51.980;5.734;2023-01-15T13:46:18;99687.66;;;5.55;100.00
48790;BME280;41718;51.980;5.734;2023-01-15T13:51:28;99681.63;;;5.50;100.00
48790;BME280;41718;51.980;5.734;2023-01-15T13:56:32;99693.50;;;5.45;100.00
48790;BME280;41718;51.980;5.734;2023-01-15T14:01:37;99713.09;;;5.42;100.00
48790;BME280;41718;51.980;5.734;2023-01-15T14:17:17;99708.91;;;5.47;100.00
48790;BME280;41718;51.980;5.734;2023-01-15T14:22:30;99703.91;;;5.54;100.00
48790;BME280;41718;51.980;5.734;2023-01-15T14:28:02;99701.31;;;5.51;100.00
48790;BME280;41718;51.980;5.734;2023-01-15T14:33:34;99720.88;;;5.45;100.00
48790;BME280;41718;51.980;5.734;2023-01-15T14:38:56;99718.41;;;5.51;100.00
48790;BME280;41718;51.980;5.734;2023-01-15T14:44:00;99720.88;;;5.45;100.00
48790;BME280;41718;51.980;5.734;2023-01-15T14:49:03;99725.00;;;5.38;100.00
48790;BME280;41718;51.980;5.734;2023-01-15T14:54:09;99720.59;;;5.31;100.00
48790;BME280;41718;51.980;5.734;2023-01-15T14:59:41;99739.69;;;5.47;100.00
48790;BME280;41718;51.980;5.734;2023-01-15T15:04:53;99729.63;;;5.57;100.00
48790;BME280;41718;51.980;5.734;2023-01-15T15:15:38;99743.22;;;5.52;100.00
48790;BME280;41718;51.980;5.734;2023-01-15T15:26:01;99745.22;;;5.21;100.00
48790;BME280;41718;51.980;5.734;2023-01-15T15:31:03;99748.38;;;5.07;100.00
48790;BME280;41718;51.980;5.734;2023-01-15T15:36:06;99757.56;;;4.97;100.00
48790;BME280;41718;51.980;5.734;2023-01-15T15:41:10;99771.09;;;4.90;100.00
48790;BME280;41718;51.980;5.734;2023-01-15T15:46:47;99760.16;;;4.98;100.00
48790;BME280;41718;51.980;5.734;2023-01-15T15:52:21;99757.56;;;4.95;100.00
48790;BME280;41718;51.980;5.734;2023-01-15T15:57:26;99768.88;;;5.07;100.00
48790;BME280;41718;51.980;5.734;2023-01-15T16:02:38;99746.97;;;5.24;100.00
48790;BME280;41718;51.980;5.734;2023-01-15T16:07:41;99764.97;;;5.27;100.00
48790;BME280;41718;51.980;5.734;2023-01-15T16:12:49;99767.53;;;5.27;100.00
48790;BME280;41718;51.980;5.734;2023-01-15T16:17:51;99747.94;;;5.29;100.00
48790;BME280;41718;51.980;5.734;2023-01-15T16:23:01;99771.22;;;5.41;100.00
48790;BME280;41718;51.980;5.734;2023-01-15T16:28:03;99766.75;;;5.31;100.00
48790;BME280;41718;51.980;5.734;2023-01-15T16:33:05;99763.34;;;5.30;100.00
48790;BME280;41718;51.980;5.734;2023-01-15T16:38:15;99770.28;;;5.38;100.00
48790;BME280;41718;51.980;5.734;2023-01-15T16:43:24;99775.47;;;5.39;100.00
48790;BME280;41718;51.980;5.734;2023-01-15T16:53:39;99789.75;;;5.26;100.00
48790;BME280;41718;51.980;5.734;2023-01-15T16:58:41;99785.34;;;5.19;100.00
48790;BME280;41718;51.980;5.734;2023-01-15T17:03:49;99794.75;;;5.20;100.00
48790;BME280;41718;51.980;5.734;2023-01-15T17:08:55;99787.78;;;5.13;100.00
48790;BME280;41718;51.980;5.734;2023-01-15T17:14:20;99799.75;;;5.13;100.00
48790;BME280;41718;51.980;5.734;2023-01-15T17:19:23;99801.44;;;5.11;100.00
48790;BME280;41718;51.980;5.734;2023-01-15T17:24:30;99819.19;;;5.03;100.00
48790;BME280;41718;51.980;5.734;2023-01-15T17:29:33;99813.22;;;5.02;100.00
48790;BME280;41718;51.980;5.734;2023-01-15T17:34:35;99818.31;;;5.01;100.00
48790;BME280;41718;51.980;5.734;2023-01-15T17:39:36;99819.91;;;4.96;100.00
48790;BME280;41718;51.980;5.734;2023-01-15T17:44:38;99820.44;;;4.81;100.00
48790;BME280;41718;51.980;5.734;2023-01-15T17:49:44;99827.22;;;4.77;100.00
48790;BME280;41718;51.980;5.734;2023-01-15T17:54:47;99824.47;;;4.70;100.00
48790;BME280;41718;51.980;5.734;2023-01-15T18:00:09;99839.78;;;4.67;100.00
48790;BME280;41718;51.980;5.734;2023-01-15T18:05:29;99848.09;;;4.57;100.00
48790;BME280;41718;51.980;5.734;2023-01-15T18:10:38;99840.38;;;4.55;100.00
48790;BME280;41718;51.980;5.734;2023-01-15T18:15:40;99844.56;;;4.51;100.00
48790;BME280;41718;51.980;5.734;2023-01-15T18:48:48;99823.13;;;4.10;100.00
48790;BME280;41718;51.980;5.734;2023-01-15T18:53:49;99824.00;;;4.11;100.00
48790;BME280;41718;51.980;5.734;2023-01-15T18:58:51;99829.78;;;4.04;100.00
48790;BME280;41718;51.980;5.734;2023-01-15T19:03:52;99827.88;;;3.96;100.00
48790;BME280;41718;51.980;5.734;2023-01-15T19:08:53;99825.28;;;3.93;100.00
48790;BME280;41718;51.980;5.734;2023-01-15T19:13:55;99832.84;;;3.90;100.00
48790;BME280;41718;51.980;5.734;2023-01-15T19:19:16;99829.53;;;3.93;100.00
48790;BME280;41718;51.980;5.734;2023-01-15T19:24:18;99830.28;;;3.89;100.00
48790;BME280;41718;51.980;5.734;2023-01-15T19:29:21;99820.75;;;3.83;100.00
48790;BME280;41718;51.980;5.734;2023-01-15T19:34:24;99820.69;;;3.80;100.00
48790;BME280;41718;51.980;5.734;2023-01-15T19:39:34;99812.59;;;3.63;100.00
48790;BME280;41718;51.980;5.734;2023-01-15T19:44:36;99803.88;;;3.57;100.00
48790;BME280;41718;51.980;5.734;2023-01-15T19:49:56;99795.59;;;3.65;100.00
48790;BME280;41718;51.980;5.734;2023-01-15T19:55:20;99783.31;;;3.52;100.00
48790;BME280;41718;51.980;5.734;2023-01-15T20:00:23;99784.03;;;3.47;100.00
48790;BME280;41718;51.980;5.734;2023-01-15T20:05:27;99779.16;;;3.57;100.00
48790;BME280;41718;51.980;5.734;2023-01-15T20:10:29;99761.19;;;3.53;100.00
48790;BME280;41718;51.980;5.734;2023-01-15T20:15:39;99761.03;;;3.47;100.00
48790;BME280;41718;51.980;5.734;2023-01-15T20:20:53;99756.16;;;3.57;100.00
48790;BME280;41718;51.980;5.734;2023-01-15T20:26:00;99741.50;;;3.50;100.00
48790;BME280;41718;51.980;5.734;2023-01-15T20:31:02;99740.78;;;3.56;100.00
48790;BME280;41718;51.980;5.734;2023-01-15T20:36:04;99738.91;;;3.49;100.00
48790;BME280;41718;51.980;5.734;2023-01-15T20:41:07;99739.09;;;3.56;100.00
48790;BME280;41718;51.980;5.734;2023-01-15T20:46:27;99729.97;;;3.66;100.00
48790;BME280;41718;51.980;5.734;2023-01-15T20:51:29;99726.78;;;3.75;100.00
48790;BME280;41718;51.980;5.734;2023-01-15T20:56:31;99714.78;;;3.73;100.00
48790;BME280;41718;51.980;5.734;2023-01-15T21:01:35;99708.75;;;3.70;100.00
48790;BME280;41718;51.980;5.734;2023-01-15T21:06:37;99701.25;;;3.78;100.00
48790;BME280;41718;51.980;5.734;2023-01-15T21:11:38;99705.50;;;3.77;100.00
48790;BME280;41718;51.980;5.734;2023-01-15T21:16:42;99691.88;;;3.78;100.00
48790;BME280;41718;51.980;5.734;2023-01-15T21:21:44;99684.22;;;3.80;100.00
48790;BME280;41718;51.980;5.734;2023-01-15T21:26:46;99683.47;;;3.82;100.00
48790;BME280;41718;51.980;5.734;2023-01-15T21:31:49;99664.47;;;3.72;100.00
48790;BME280;41718;51.980;5.734;2023-01-15T21:36:51;99658.59;;;3.75;100.00
48790;BME280;41718;51.980;5.734;2023-01-15T21:41:52;99651.56;;;3.68;100.00
48790;BME280;41718;51.980;5.734;2023-01-15T21:47:14;99639.63;;;3.67;100.00
48790;BME280;41718;51.980;5.734;2023-01-15T21:52:19;99633.81;;;3.74;100.00
48790;BME280;41718;51.980;5.734;2023-01-15T21:57:21;99631.94;;;3.65;100.00
48790;BME280;41718;51.980;5.734;2023-01-15T22:02:22;99611.59;;;3.71;100.00
48790;BME280;41718;51.980;5.734;2023-01-15T22:07:24;99603.97;;;3.73;100.00
48790;BME280;41718;51.980;5.734;2023-01-15T22:12:26;99602.38;;;3.78;100.00
48790;BME280;41718;51.980;5.734;2023-01-15T22:17:27;99587.94;;;3.80;100.00
48790;BME280;41718;51.980;5.734;2023-01-15T22:22:29;99573.44;;;3.81;100.00
48790;BME280;41718;51.980;5.734;2023-01-15T22:27:34;99550.69;;;3.94;100.00
48790;BME280;41718;51.980;5.734;2023-01-15T22:32:40;99544.88;;;4.02;100.00
48790;BME280;41718;51.980;5.734;2023-01-15T22:37:45;99533.97;;;4.12;100.00
48790;BME280;41718;51.980;5.734;2023-01-15T22:42:46;99533.09;;;4.10;100.00
48790;BME280;41718;51.980;5.734;2023-01-15T22:47:48;99522.91;;;4.13;100.00
48790;BME280;41718;51.980;5.734;2023-01-15T22:52:51;99509.22;;;4.09;100.00
48790;BME280;41718;51.980;5.734;2023-01-15T22:57:53;99503.25;;;4.10;100.00
48790;BME280;41718;51.980;5.734;2023-01-15T23:02:54;99497.59;;;4.27;100.00
48790;BME280;41718;51.980;5.734;2023-01-15T23:07:56;99485.69;;;4.30;100.00
48790;BME280;41718;51.980;5.734;2023-01-15T23:12:57;99483.81;;;4.20;100.00
48790;BME280;41718;51.980;5.734;2023-01-15T23:17:59;99479.47;;;4.16;100.00
48790;BME280;41718;51.980;5.734;2023-01-15T23:23:01;99473.31;;;4.05;100.00
48790;BME280;41718;51.980;5.734;2023-01-15T23:28:02;99460.44;;;4.02;100.00
48790;BME280;41718;51.980;5.734;2023-01-15T23:33:04;99448.47;;;3.99;100.00
48790;BME280;41718;51.980;5.734;2023-01-15T23:38:05;99426.41;;;4.06;100.00
48790;BME280;41718;51.980;5.734;2023-01-15T23:43:11;99434.97;;;4.08;100.00
48790;BME280;41718;51.980;5.734;2023-01-15T23:48:32;99428.13;;;4.08;100.00
48790;BME280;41718;51.980;5.734;2023-01-15T23:53:33;99412.75;;;4.05;100.00
48790;BME280;41718;51.980;5.734;2023-01-15T23:58:35;99411.06;;;4.07;100.00
